sensor_id;sensor_type;location;lat;lon;timestamp;P1;durP1;ratioP1;P2;durP2;ratioP2
23266;SDS011;11802;53.160;8.214;2023-05-10T00:00:32;13.10;;;10.90;;
23266;SDS011;11802;53.160;8.214;2023-05-10T00:02:58;13.32;;;10.80;;
23266;SDS011;11802;53.160;8.214;2023-05-10T00:05:23;12.75;;;10.73;;
23266;SDS011;11802;53.160;8.214;2023-05-10T00:07:49;12.43;;;10.40;;
23266;SDS011;11802;53.160;8.214;2023-05-10T00:10:14;14.23;;;10.83;;
23266;SDS011;11802;53.160;8.214;2023-05-10T00:12:40;13.18;;;10.95;;
23266;SDS011;11802;53.160;8.214;2023-05-10T00:15:05;12.07;;;10.30;;
23266;SDS011;11802;53.160;8.214;2023-05-10T00:17:32;12.45;;;10.80;;
23266;SDS011;11802;53.160;8.214;2023-05-10T00:19:57;13.90;;;10.93;;
23266;SDS011;11802;53.160;8.214;2023-05-10T00:22:23;13.32;;;10.40;;
23266;SDS011;11802;53.160;8.214;2023-05-10T00:24:48;12.48;;;10.35;;
23266;SDS011;11802;53.160;8.214;2023-05-10T00:27:14;13.88;;;10.30;;
23266;SDS011;11802;53.160;8.214;2023-05-10T00:29:39;12.25;;;10.45;;
23266;SDS011;11802;53.160;8.214;2023-05-10T00:32:05;11.88;;;9.90;;
23266;SDS011;11802;53.160;8.214;2023-05-10T00:34:31;13.57;;;10.07;;
23266;SDS011;11802;53.160;8.214;2023-05-10T00:36:56;12.82;;;10.00;;
23266;SDS011;11802;53.160;8.214;2023-05-10T00:39:22;12.10;;;10.23;;
23266;SDS011;11802;53.160;8.214;2023-05-10T00:41:47;12.50;;;10.70;;
23266;SDS011;11802;53.160;8.214;2023-05-10T00:44:13;13.13;;;9.75;;
23266;SDS011;11802;53.160;8.214;2023-05-10T00:46:38;13.05;;;10.30;;
23266;SDS011;11802;53.160;8.214;2023-05-10T00:49:04;11.40;;;9.63;;
23266;SDS011;11802;53.160;8.214;2023-05-10T00:51:31;12.00;;;9.68;;
23266;SDS011;11802;53.160;8.214;2023-05-10T00:53:57;11.80;;;9.65;;
23266;SDS011;11802;53.160;8.214;2023-05-10T00:56:23;11.57;;;9.57;;
23266;SDS011;11802;53.160;8.214;2023-05-10T00:58:50;14.88;;;9.80;;
23266;SDS011;11802;53.160;8.214;2023-05-10T01:01:16;12.55;;;9.55;;
23266;SDS011;11802;53.160;8.214;2023-05-10T01:03:41;12.60;;;9.93;;
23266;SDS011;11802;53.160;8.214;2023-05-10T01:06:07;11.20;;;9.02;;
23266;SDS011;11802;53.160;8.214;2023-05-10T01:08:34;11.68;;;9.48;;
23266;SDS011;11802;53.160;8.214;2023-05-10T01:11:00;10.40;;;8.82;;
23266;SDS011;11802;53.160;8.214;2023-05-10T01:13:33;13.57;;;9.32;;
23266;SDS011;11802;53.160;8.214;2023-05-10T01:16:03;10.45;;;8.77;;
23266;SDS011;11802;53.160;8.214;2023-05-10T01:18:29;11.07;;;9.15;;
23266;SDS011;11802;53.160;8.214;2023-05-10T01:22:02;11.30;;;8.90;;
23266;SDS011;11802;53.160;8.214;2023-05-10T01:24:46;11.57;;;9.05;;
23266;SDS011;11802;53.160;8.214;2023-05-10T01:27:03;11.33;;;8.33;;
23266;SDS011;11802;53.160;8.214;2023-05-10T01:43:36;11.35;;;9.50;;
23266;SDS011;11802;53.160;8.214;2023-05-10T01:46:09;12.83;;;9.77;;
23266;SDS011;11802;53.160;8.214;2023-05-10T01:48:43;12.40;;;9.57;;
23266;SDS011;11802;53.160;8.214;2023-05-10T01:51:16;12.03;;;9.37;;
23266;SDS011;11802;53.160;8.214;2023-05-10T01:53:46;11.87;;;9.33;;
23266;SDS011;11802;53.160;8.214;2023-05-10T01:56:13;11.03;;;9.37;;
23266;SDS011;11802;53.160;8.214;2023-05-10T01:58:40;10.50;;;8.85;;
23266;SDS011;11802;53.160;8.214;2023-05-10T02:01:10;12.43;;;9.47;;
23266;SDS011;11802;53.160;8.214;2023-05-10T02:03:36;12.30;;;8.73;;
23266;SDS011;11802;53.160;8.214;2023-05-10T02:06:03;13.68;;;9.15;;
23266;SDS011;11802;53.160;8.214;2023-05-10T02:08:30;10.87;;;8.57;;
23266;SDS011;11802;53.160;8.214;2023-05-10T02:10:57;10.33;;;9.03;;
23266;SDS011;11802;53.160;8.214;2023-05-10T02:13:24;12.23;;;9.00;;
23266;SDS011;11802;53.160;8.214;2023-05-10T02:15:52;10.90;;;8.70;;
23266;SDS011;11802;53.160;8.214;2023-05-10T02:18:19;10.83;;;9.10;;
23266;SDS011;11802;53.160;8.214;2023-05-10T02:20:47;10.53;;;8.13;;
23266;SDS011;11802;53.160;8.214;2023-05-10T02:23:13;16.30;;;9.13;;
23266;SDS011;11802;53.160;8.214;2023-05-10T02:25:42;11.25;;;8.45;;
23266;SDS011;11802;53.160;8.214;2023-05-10T02:28:08;12.57;;;9.77;;
23266;SDS011;11802;53.160;8.214;2023-05-10T02:30:36;14.43;;;9.27;;
23266;SDS011;11802;53.160;8.214;2023-05-10T02:33:03;11.27;;;9.43;;
23266;SDS011;11802;53.160;8.214;2023-05-10T02:35:31;12.53;;;9.27;;
23266;SDS011;11802;53.160;8.214;2023-05-10T02:37:58;11.57;;;9.50;;
23266;SDS011;11802;53.160;8.214;2023-05-10T02:40:24;11.87;;;10.07;;
23266;SDS011;11802;53.160;8.214;2023-05-10T02:42:52;11.63;;;9.38;;
23266;SDS011;11802;53.160;8.214;2023-05-10T02:45:23;11.60;;;9.37;;
23266;SDS011;11802;53.160;8.214;2023-05-10T02:47:53;12.45;;;10.20;;
23266;SDS011;11802;53.160;8.214;2023-05-10T02:50:19;13.63;;;10.23;;
23266;SDS011;11802;53.160;8.214;2023-05-10T02:52:52;11.38;;;9.35;;
23266;SDS011;11802;53.160;8.214;2023-05-10T02:55:22;13.10;;;10.23;;
23266;SDS011;11802;53.160;8.214;2023-05-10T02:57:52;12.80;;;10.53;;
23266;SDS011;11802;53.160;8.214;2023-05-10T03:00:24;13.13;;;10.33;;
23266;SDS011;11802;53.160;8.214;2023-05-10T03:02:49;12.30;;;9.67;;
23266;SDS011;11802;53.160;8.214;2023-05-10T03:05:15;15.32;;;10.02;;
23266;SDS011;11802;53.160;8.214;2023-05-10T03:07:40;12.75;;;10.02;;
23266;SDS011;11802;53.160;8.214;2023-05-10T03:10:06;13.37;;;9.87;;
23266;SDS011;11802;53.160;8.214;2023-05-10T03:15:35;12.83;;;10.53;;
23266;SDS011;11802;53.160;8.214;2023-05-10T03:18:22;13.02;;;9.93;;
23266;SDS011;11802;53.160;8.214;2023-05-10T03:21:02;12.63;;;9.93;;
23266;SDS011;11802;53.160;8.214;2023-05-10T03:23:34;13.53;;;10.00;;
23266;SDS011;11802;53.160;8.214;2023-05-10T03:26:03;14.63;;;10.33;;
23266;SDS011;11802;53.160;8.214;2023-05-10T03:28:30;11.88;;;9.98;;
23266;SDS011;11802;53.160;8.214;2023-05-10T03:30:58;12.83;;;9.93;;
23266;SDS011;11802;53.160;8.214;2023-05-10T03:33:24;14.23;;;9.50;;
23266;SDS011;11802;53.160;8.214;2023-05-10T03:35:50;13.00;;;9.07;;
23266;SDS011;11802;53.160;8.214;2023-05-10T03:38:16;14.13;;;10.73;;
23266;SDS011;11802;53.160;8.214;2023-05-10T03:40:41;13.33;;;10.50;;
23266;SDS011;11802;53.160;8.214;2023-05-10T03:43:07;15.02;;;11.05;;
23266;SDS011;11802;53.160;8.214;2023-05-10T03:45:32;13.70;;;11.13;;
23266;SDS011;11802;53.160;8.214;2023-05-10T03:47:58;12.98;;;11.15;;
23266;SDS011;11802;53.160;8.214;2023-05-10T03:50:23;14.03;;;11.27;;
23266;SDS011;11802;53.160;8.214;2023-05-10T03:52:49;13.80;;;11.45;;
23266;SDS011;11802;53.160;8.214;2023-05-10T03:55:15;14.07;;;11.02;;
23266;SDS011;11802;53.160;8.214;2023-05-10T03:57:41;13.27;;;9.87;;
23266;SDS011;11802;53.160;8.214;2023-05-10T04:00:07;10.02;;;6.65;;
23266;SDS011;11802;53.160;8.214;2023-05-10T04:02:33;6.63;;;5.13;;
23266;SDS011;11802;53.160;8.214;2023-05-10T04:04:59;7.77;;;4.63;;
23266;SDS011;11802;53.160;8.214;2023-05-10T04:07:24;5.05;;;4.00;;
23266;SDS011;11802;53.160;8.214;2023-05-10T04:09:50;6.20;;;4.50;;
23266;SDS011;11802;53.160;8.214;2023-05-10T04:12:15;7.43;;;3.70;;
23266;SDS011;11802;53.160;8.214;2023-05-10T04:14:41;5.63;;;3.90;;
23266;SDS011;11802;53.160;8.214;2023-05-10T04:17:06;5.50;;;4.03;;
23266;SDS011;11802;53.160;8.214;2023-05-10T04:19:32;6.40;;;4.40;;
23266;SDS011;11802;53.160;8.214;2023-05-10T04:21:58;7.47;;;4.83;;
23266;SDS011;11802;53.160;8.214;2023-05-10T04:24:23;7.63;;;4.10;;
23266;SDS011;11802;53.160;8.214;2023-05-10T04:26:49;6.10;;;4.30;;
23266;SDS011;11802;53.160;8.214;2023-05-10T04:29:15;6.50;;;4.97;;
23266;SDS011;11802;53.160;8.214;2023-05-10T04:31:41;7.63;;;4.90;;
23266;SDS011;11802;53.160;8.214;2023-05-10T04:34:06;6.13;;;4.40;;
23266;SDS011;11802;53.160;8.214;2023-05-10T04:36:32;7.90;;;5.43;;
23266;SDS011;11802;53.160;8.214;2023-05-10T04:38:58;6.27;;;4.47;;
23266;SDS011;11802;53.160;8.214;2023-05-10T04:41:24;6.77;;;4.80;;
23266;SDS011;11802;53.160;8.214;2023-05-10T04:43:50;7.67;;;5.10;;
23266;SDS011;11802;53.160;8.214;2023-05-10T04:46:16;6.10;;;4.33;;
23266;SDS011;11802;53.160;8.214;2023-05-10T04:48:41;6.78;;;4.93;;
23266;SDS011;11802;53.160;8.214;2023-05-10T04:51:07;6.83;;;5.07;;
23266;SDS011;11802;53.160;8.214;2023-05-10T04:53:32;6.80;;;4.80;;
23266;SDS011;11802;53.160;8.214;2023-05-10T04:55:58;6.67;;;4.40;;
23266;SDS011;11802;53.160;8.214;2023-05-10T04:58:23;6.10;;;4.30;;
23266;SDS011;11802;53.160;8.214;2023-05-10T05:00:49;5.30;;;3.70;;
23266;SDS011;11802;53.160;8.214;2023-05-10T05:03:14;9.50;;;4.30;;
23266;SDS011;11802;53.160;8.214;2023-05-10T05:05:40;5.07;;;3.60;;
23266;SDS011;11802;53.160;8.214;2023-05-10T05:08:05;5.53;;;4.00;;
23266;SDS011;11802;53.160;8.214;2023-05-10T05:10:31;5.07;;;3.40;;
23266;SDS011;11802;53.160;8.214;2023-05-10T05:12:56;5.30;;;3.40;;
23266;SDS011;11802;53.160;8.214;2023-05-10T05:15:22;5.40;;;3.47;;
23266;SDS011;11802;53.160;8.214;2023-05-10T05:17:48;5.53;;;3.87;;
23266;SDS011;11802;53.160;8.214;2023-05-10T05:20:13;5.93;;;3.70;;
23266;SDS011;11802;53.160;8.214;2023-05-10T05:22:39;6.30;;;4.00;;
23266;SDS011;11802;53.160;8.214;2023-05-10T05:25:05;6.07;;;3.97;;
23266;SDS011;11802;53.160;8.214;2023-05-10T05:27:31;5.43;;;3.73;;
23266;SDS011;11802;53.160;8.214;2023-05-10T05:29:57;7.30;;;4.27;;
23266;SDS011;11802;53.160;8.214;2023-05-10T05:32:23;6.37;;;4.50;;
23266;SDS011;11802;53.160;8.214;2023-05-10T05:34:48;6.77;;;5.07;;
23266;SDS011;11802;53.160;8.214;2023-05-10T05:37:14;7.20;;;4.90;;
23266;SDS011;11802;53.160;8.214;2023-05-10T05:39:41;7.23;;;4.40;;
23266;SDS011;11802;53.160;8.214;2023-05-10T05:42:07;5.87;;;4.30;;
23266;SDS011;11802;53.160;8.214;2023-05-10T05:44:33;6.90;;;4.33;;
23266;SDS011;11802;53.160;8.214;2023-05-10T05:46:58;5.97;;;4.23;;
23266;SDS011;11802;53.160;8.214;2023-05-10T05:49:24;6.43;;;4.60;;
23266;SDS011;11802;53.160;8.214;2023-05-10T05:51:49;6.17;;;4.73;;
23266;SDS011;11802;53.160;8.214;2023-05-10T05:54:15;6.90;;;5.10;;
23266;SDS011;11802;53.160;8.214;2023-05-10T05:56:41;7.70;;;5.77;;
23266;SDS011;11802;53.160;8.214;2023-05-10T05:59:06;7.40;;;5.40;;
23266;SDS011;11802;53.160;8.214;2023-05-10T06:01:32;8.47;;;5.77;;
23266;SDS011;11802;53.160;8.214;2023-05-10T06:03:58;7.73;;;5.20;;
23266;SDS011;11802;53.160;8.214;2023-05-10T06:06:23;6.60;;;5.30;;
23266;SDS011;11802;53.160;8.214;2023-05-10T06:08:49;7.60;;;4.87;;
23266;SDS011;11802;53.160;8.214;2023-05-10T06:11:14;6.43;;;4.70;;
23266;SDS011;11802;53.160;8.214;2023-05-10T06:13:40;6.20;;;4.43;;
23266;SDS011;11802;53.160;8.214;2023-05-10T06:16:07;6.50;;;4.87;;
23266;SDS011;11802;53.160;8.214;2023-05-10T06:18:33;5.47;;;4.10;;
23266;SDS011;11802;53.160;8.214;2023-05-10T06:20:59;7.10;;;5.10;;
23266;SDS011;11802;53.160;8.214;2023-05-10T06:23:25;6.00;;;4.47;;
23266;SDS011;11802;53.160;8.214;2023-05-10T06:25:51;7.55;;;5.45;;
23266;SDS011;11802;53.160;8.214;2023-05-10T06:28:17;5.80;;;4.13;;
23266;SDS011;11802;53.160;8.214;2023-05-10T06:30:42;7.23;;;5.53;;
23266;SDS011;11802;53.160;8.214;2023-05-10T06:33:08;7.43;;;5.57;;
23266;SDS011;11802;53.160;8.214;2023-05-10T06:35:33;7.03;;;4.43;;
23266;SDS011;11802;53.160;8.214;2023-05-10T06:37:59;7.77;;;5.80;;
23266;SDS011;11802;53.160;8.214;2023-05-10T06:40:24;6.80;;;5.13;;
23266;SDS011;11802;53.160;8.214;2023-05-10T06:42:50;7.57;;;4.85;;
23266;SDS011;11802;53.160;8.214;2023-05-10T06:45:16;7.47;;;5.28;;
23266;SDS011;11802;53.160;8.214;2023-05-10T06:47:41;6.20;;;4.80;;
23266;SDS011;11802;53.160;8.214;2023-05-10T06:50:07;8.27;;;5.50;;
23266;SDS011;11802;53.160;8.214;2023-05-10T06:52:34;7.63;;;5.15;;
23266;SDS011;11802;53.160;8.214;2023-05-10T06:54:59;7.97;;;5.53;;
23266;SDS011;11802;53.160;8.214;2023-05-10T06:57:25;6.68;;;4.85;;
23266;SDS011;11802;53.160;8.214;2023-05-10T06:59:51;11.32;;;8.65;;
23266;SDS011;11802;53.160;8.214;2023-05-10T07:02:17;7.00;;;5.20;;
23266;SDS011;11802;53.160;8.214;2023-05-10T07:04:42;6.87;;;4.83;;
23266;SDS011;11802;53.160;8.214;2023-05-10T07:07:08;6.95;;;5.38;;
23266;SDS011;11802;53.160;8.214;2023-05-10T07:09:34;7.30;;;5.85;;
23266;SDS011;11802;53.160;8.214;2023-05-10T07:11:59;7.43;;;5.15;;
23266;SDS011;11802;53.160;8.214;2023-05-10T07:14:26;9.02;;;7.18;;
23266;SDS011;11802;53.160;8.214;2023-05-10T07:16:52;8.88;;;6.18;;
23266;SDS011;11802;53.160;8.214;2023-05-10T07:19:18;6.88;;;5.38;;
23266;SDS011;11802;53.160;8.214;2023-05-10T07:21:44;7.88;;;5.82;;
23266;SDS011;11802;53.160;8.214;2023-05-10T07:24:31;7.43;;;5.53;;
23266;SDS011;11802;53.160;8.214;2023-05-10T07:27:30;8.23;;;6.20;;
23266;SDS011;11802;53.160;8.214;2023-05-10T07:29:56;8.75;;;6.75;;
23266;SDS011;11802;53.160;8.214;2023-05-10T07:32:22;8.02;;;6.07;;
23266;SDS011;11802;53.160;8.214;2023-05-10T07:34:48;8.43;;;5.57;;
23266;SDS011;11802;53.160;8.214;2023-05-10T07:37:14;12.23;;;8.05;;
23266;SDS011;11802;53.160;8.214;2023-05-10T07:39:40;10.02;;;6.63;;
23266;SDS011;11802;53.160;8.214;2023-05-10T07:42:05;9.03;;;6.10;;
23266;SDS011;11802;53.160;8.214;2023-05-10T07:44:31;8.57;;;6.75;;
23266;SDS011;11802;53.160;8.214;2023-05-10T07:46:57;14.45;;;9.00;;
23266;SDS011;11802;53.160;8.214;2023-05-10T07:49:22;7.17;;;5.03;;
23266;SDS011;11802;53.160;8.214;2023-05-10T07:51:51;9.65;;;6.85;;
23266;SDS011;11802;53.160;8.214;2023-05-10T07:54:17;6.32;;;4.40;;
23266;SDS011;11802;53.160;8.214;2023-05-10T07:56:46;6.22;;;4.43;;
23266;SDS011;11802;53.160;8.214;2023-05-10T07:59:15;6.65;;;4.50;;
23266;SDS011;11802;53.160;8.214;2023-05-10T08:01:41;5.60;;;4.30;;
23266;SDS011;11802;53.160;8.214;2023-05-10T08:04:07;5.63;;;4.07;;
23266;SDS011;11802;53.160;8.214;2023-05-10T08:06:34;5.97;;;4.47;;
23266;SDS011;11802;53.160;8.214;2023-05-10T08:08:59;5.07;;;4.13;;
23266;SDS011;11802;53.160;8.214;2023-05-10T08:11:25;5.50;;;3.80;;
23266;SDS011;11802;53.160;8.214;2023-05-10T08:13:52;6.80;;;4.23;;
23266;SDS011;11802;53.160;8.214;2023-05-10T08:16:18;6.37;;;3.80;;
23266;SDS011;11802;53.160;8.214;2023-05-10T08:18:44;4.93;;;2.95;;
23266;SDS011;11802;53.160;8.214;2023-05-10T08:21:11;3.33;;;2.55;;
23266;SDS011;11802;53.160;8.214;2023-05-10T08:23:38;5.10;;;3.20;;
23266;SDS011;11802;53.160;8.214;2023-05-10T08:26:04;5.63;;;2.83;;
23266;SDS011;11802;53.160;8.214;2023-05-10T08:28:30;5.15;;;3.17;;
23266;SDS011;11802;53.160;8.214;2023-05-10T08:30:55;5.82;;;3.03;;
23266;SDS011;11802;53.160;8.214;2023-05-10T08:33:21;5.35;;;2.70;;
23266;SDS011;11802;53.160;8.214;2023-05-10T08:35:46;5.13;;;3.65;;
23266;SDS011;11802;53.160;8.214;2023-05-10T08:38:12;6.47;;;3.67;;
23266;SDS011;11802;53.160;8.214;2023-05-10T08:40:38;3.70;;;2.90;;
23266;SDS011;11802;53.160;8.214;2023-05-10T08:43:09;4.47;;;2.75;;
23266;SDS011;11802;53.160;8.214;2023-05-10T08:45:37;4.60;;;3.10;;
23266;SDS011;11802;53.160;8.214;2023-05-10T08:48:07;4.25;;;2.83;;
23266;SDS011;11802;53.160;8.214;2023-05-10T08:50:37;4.85;;;2.50;;
23266;SDS011;11802;53.160;8.214;2023-05-10T08:53:05;7.10;;;3.28;;
23266;SDS011;11802;53.160;8.214;2023-05-10T08:55:34;3.70;;;3.00;;
23266;SDS011;11802;53.160;8.214;2023-05-10T08:58:01;4.30;;;3.20;;
23266;SDS011;11802;53.160;8.214;2023-05-10T09:00:28;4.50;;;2.85;;
23266;SDS011;11802;53.160;8.214;2023-05-10T09:02:54;5.35;;;3.25;;
23266;SDS011;11802;53.160;8.214;2023-05-10T09:06:19;4.70;;;3.30;;
23266;SDS011;11802;53.160;8.214;2023-05-10T09:08:45;5.65;;;3.83;;
23266;SDS011;11802;53.160;8.214;2023-05-10T09:11:11;5.30;;;3.55;;
23266;SDS011;11802;53.160;8.214;2023-05-10T09:13:38;4.97;;;3.63;;
23266;SDS011;11802;53.160;8.214;2023-05-10T09:16:04;5.47;;;3.45;;
23266;SDS011;11802;53.160;8.214;2023-05-10T09:18:30;5.72;;;4.10;;
23266;SDS011;11802;53.160;8.214;2023-05-10T09:20:55;6.07;;;3.40;;
23266;SDS011;11802;53.160;8.214;2023-05-10T09:23:21;6.97;;;4.93;;
23266;SDS011;11802;53.160;8.214;2023-05-10T09:25:47;9.10;;;6.65;;
23266;SDS011;11802;53.160;8.214;2023-05-10T09:28:12;9.73;;;6.45;;
23266;SDS011;11802;53.160;8.214;2023-05-10T09:30:38;9.85;;;7.82;;
23266;SDS011;11802;53.160;8.214;2023-05-10T09:33:04;7.70;;;4.25;;
23266;SDS011;11802;53.160;8.214;2023-05-10T09:35:31;5.65;;;4.43;;
23266;SDS011;11802;53.160;8.214;2023-05-10T09:37:59;5.05;;;3.80;;
23266;SDS011;11802;53.160;8.214;2023-05-10T09:40:36;11.27;;;6.55;;
23266;SDS011;11802;53.160;8.214;2023-05-10T09:43:11;5.35;;;2.90;;
23266;SDS011;11802;53.160;8.214;2023-05-10T09:45:38;2.58;;;1.95;;
23266;SDS011;11802;53.160;8.214;2023-05-10T09:48:06;3.20;;;1.83;;
23266;SDS011;11802;53.160;8.214;2023-05-10T09:50:31;2.90;;;1.90;;
23266;SDS011;11802;53.160;8.214;2023-05-10T09:52:57;3.08;;;1.70;;
23266;SDS011;11802;53.160;8.214;2023-05-10T09:55:46;2.92;;;1.50;;
23266;SDS011;11802;53.160;8.214;2023-05-10T09:58:12;2.50;;;1.45;;
23266;SDS011;11802;53.160;8.214;2023-05-10T10:00:39;2.72;;;1.50;;
23266;SDS011;11802;53.160;8.214;2023-05-10T10:03:11;1.50;;;1.15;;
23266;SDS011;11802;53.160;8.214;2023-05-10T10:05:39;23.17;;;2.38;;
23266;SDS011;11802;53.160;8.214;2023-05-10T10:08:07;2.17;;;1.33;;
23266;SDS011;11802;53.160;8.214;2023-05-10T10:10:33;3.58;;;1.27;;
23266;SDS011;11802;53.160;8.214;2023-05-10T10:12:59;2.10;;;1.23;;
23266;SDS011;11802;53.160;8.214;2023-05-10T10:15:25;2.42;;;1.17;;
23266;SDS011;11802;53.160;8.214;2023-05-10T10:17:51;1.25;;;0.98;;
23266;SDS011;11802;53.160;8.214;2023-05-10T10:20:18;1.13;;;0.77;;
23266;SDS011;11802;53.160;8.214;2023-05-10T10:22:45;0.80;;;0.80;;
23266;SDS011;11802;53.160;8.214;2023-05-10T10:25:11;1.17;;;0.95;;
23266;SDS011;11802;53.160;8.214;2023-05-10T10:27:45;1.08;;;0.90;;
23266;SDS011;11802;53.160;8.214;2023-05-10T10:30:20;0.68;;;0.68;;
23266;SDS011;11802;53.160;8.214;2023-05-10T10:36:03;0.47;;;0.47;;
23266;SDS011;11802;53.160;8.214;2023-05-10T10:39:07;0.50;;;0.30;;
23266;SDS011;11802;53.160;8.214;2023-05-10T10:41:38;1.92;;;0.50;;
23266;SDS011;11802;53.160;8.214;2023-05-10T10:44:28;2.38;;;0.50;;
23266;SDS011;11802;53.160;8.214;2023-05-10T10:49:27;3.63;;;0.70;;
23266;SDS011;11802;53.160;8.214;2023-05-10T10:52:15;0.43;;;0.40;;
23266;SDS011;11802;53.160;8.214;2023-05-10T11:02:44;1.35;;;0.57;;
23266;SDS011;11802;53.160;8.214;2023-05-10T11:13:27;0.30;;;0.30;;
23266;SDS011;11802;53.160;8.214;2023-05-10T11:15:53;2.17;;;1.42;;
23266;SDS011;11802;53.160;8.214;2023-05-10T11:18:20;2.70;;;1.23;;
23266;SDS011;11802;53.160;8.214;2023-05-10T11:20:51;3.47;;;2.00;;
23266;SDS011;11802;53.160;8.214;2023-05-10T11:26:08;2.15;;;1.60;;
23266;SDS011;11802;53.160;8.214;2023-05-10T11:28:34;8.45;;;4.15;;
23266;SDS011;11802;53.160;8.214;2023-05-10T11:31:06;1.67;;;1.33;;
23266;SDS011;11802;53.160;8.214;2023-05-10T11:33:31;1.65;;;1.52;;
23266;SDS011;11802;53.160;8.214;2023-05-10T11:36:10;3.20;;;2.35;;
23266;SDS011;11802;53.160;8.214;2023-05-10T11:38:40;3.10;;;2.10;;
23266;SDS011;11802;53.160;8.214;2023-05-10T11:41:07;4.95;;;2.63;;
23266;SDS011;11802;53.160;8.214;2023-05-10T11:43:37;4.07;;;2.88;;
23266;SDS011;11802;53.160;8.214;2023-05-10T11:46:05;4.35;;;3.50;;
23266;SDS011;11802;53.160;8.214;2023-05-10T11:48:35;3.85;;;2.75;;
23266;SDS011;11802;53.160;8.214;2023-05-10T11:51:01;5.03;;;3.67;;
23266;SDS011;11802;53.160;8.214;2023-05-10T11:53:27;6.45;;;4.57;;
23266;SDS011;11802;53.160;8.214;2023-05-10T11:55:54;5.93;;;4.40;;
23266;SDS011;11802;53.160;8.214;2023-05-10T11:58:19;8.82;;;6.05;;
23266;SDS011;11802;53.160;8.214;2023-05-10T12:00:46;9.55;;;6.47;;
23266;SDS011;11802;53.160;8.214;2023-05-10T12:03:12;8.98;;;6.75;;
23266;SDS011;11802;53.160;8.214;2023-05-10T12:05:38;9.60;;;7.47;;
23266;SDS011;11802;53.160;8.214;2023-05-10T12:08:15;10.05;;;6.80;;
23266;SDS011;11802;53.160;8.214;2023-05-10T12:10:45;10.15;;;7.38;;
23266;SDS011;11802;53.160;8.214;2023-05-10T12:13:11;10.00;;;7.90;;
23266;SDS011;11802;53.160;8.214;2023-05-10T12:15:39;10.43;;;7.85;;
23266;SDS011;11802;53.160;8.214;2023-05-10T12:18:04;10.10;;;7.43;;
23266;SDS011;11802;53.160;8.214;2023-05-10T12:20:30;8.77;;;7.05;;
23266;SDS011;11802;53.160;8.214;2023-05-10T12:22:57;8.95;;;7.15;;
23266;SDS011;11802;53.160;8.214;2023-05-10T12:25:24;8.63;;;6.03;;
23266;SDS011;11802;53.160;8.214;2023-05-10T12:27:58;8.77;;;6.45;;
23266;SDS011;11802;53.160;8.214;2023-05-10T12:30:28;7.68;;;5.97;;
23266;SDS011;11802;53.160;8.214;2023-05-10T12:35:31;8.13;;;5.70;;
23266;SDS011;11802;53.160;8.214;2023-05-10T12:37:57;7.85;;;6.32;;
23266;SDS011;11802;53.160;8.214;2023-05-10T12:40:22;7.97;;;6.38;;
23266;SDS011;11802;53.160;8.214;2023-05-10T12:42:48;8.60;;;6.63;;
23266;SDS011;11802;53.160;8.214;2023-05-10T12:45:14;9.10;;;6.78;;
23266;SDS011;11802;53.160;8.214;2023-05-10T12:47:45;9.02;;;5.70;;
23266;SDS011;11802;53.160;8.214;2023-05-10T12:50:21;6.38;;;5.15;;
23266;SDS011;11802;53.160;8.214;2023-05-10T12:52:49;7.57;;;5.60;;
23266;SDS011;11802;53.160;8.214;2023-05-10T12:55:14;7.40;;;5.18;;
23266;SDS011;11802;53.160;8.214;2023-05-10T12:57:40;8.38;;;6.03;;
23266;SDS011;11802;53.160;8.214;2023-05-10T13:00:05;8.07;;;4.93;;
23266;SDS011;11802;53.160;8.214;2023-05-10T13:02:31;5.78;;;5.05;;
23266;SDS011;11802;53.160;8.214;2023-05-10T13:04:57;6.65;;;4.75;;
23266;SDS011;11802;53.160;8.214;2023-05-10T13:07:22;6.22;;;4.22;;
23266;SDS011;11802;53.160;8.214;2023-05-10T13:09:48;6.70;;;4.90;;
23266;SDS011;11802;53.160;8.214;2023-05-10T13:12:14;6.97;;;4.78;;
23266;SDS011;11802;53.160;8.214;2023-05-10T13:14:39;6.45;;;4.50;;
23266;SDS011;11802;53.160;8.214;2023-05-10T13:17:05;5.35;;;3.72;;
23266;SDS011;11802;53.160;8.214;2023-05-10T13:19:31;5.03;;;3.80;;
23266;SDS011;11802;53.160;8.214;2023-05-10T13:21:56;6.03;;;4.35;;
23266;SDS011;11802;53.160;8.214;2023-05-10T13:24:22;5.35;;;4.28;;
23266;SDS011;11802;53.160;8.214;2023-05-10T13:26:48;7.00;;;4.45;;
23266;SDS011;11802;53.160;8.214;2023-05-10T13:29:14;5.50;;;4.07;;
23266;SDS011;11802;53.160;8.214;2023-05-10T13:31:42;6.22;;;4.32;;
23266;SDS011;11802;53.160;8.214;2023-05-10T13:34:08;5.45;;;4.20;;
23266;SDS011;11802;53.160;8.214;2023-05-10T13:36:34;5.15;;;3.58;;
23266;SDS011;11802;53.160;8.214;2023-05-10T13:38:59;4.32;;;3.58;;
23266;SDS011;11802;53.160;8.214;2023-05-10T13:41:27;4.20;;;3.20;;
23266;SDS011;11802;53.160;8.214;2023-05-10T13:43:53;4.93;;;3.35;;
23266;SDS011;11802;53.160;8.214;2023-05-10T13:46:18;3.70;;;3.08;;
23266;SDS011;11802;53.160;8.214;2023-05-10T13:48:44;4.07;;;3.35;;
23266;SDS011;11802;53.160;8.214;2023-05-10T13:51:09;5.68;;;3.38;;
23266;SDS011;11802;53.160;8.214;2023-05-10T13:53:35;3.63;;;3.00;;
23266;SDS011;11802;53.160;8.214;2023-05-10T13:56:01;2.38;;;2.17;;
23266;SDS011;11802;53.160;8.214;2023-05-10T13:58:27;2.67;;;1.83;;
23266;SDS011;11802;53.160;8.214;2023-05-10T14:00:53;2.53;;;1.58;;
23266;SDS011;11802;53.160;8.214;2023-05-10T14:03:18;1.80;;;1.55;;
23266;SDS011;11802;53.160;8.214;2023-05-10T14:05:44;2.22;;;1.60;;
23266;SDS011;11802;53.160;8.214;2023-05-10T14:08:10;3.72;;;1.95;;
23266;SDS011;11802;53.160;8.214;2023-05-10T14:10:37;2.75;;;2.30;;
23266;SDS011;11802;53.160;8.214;2023-05-10T14:13:04;3.42;;;1.80;;
23266;SDS011;11802;53.160;8.214;2023-05-10T14:15:29;3.00;;;1.70;;
23266;SDS011;11802;53.160;8.214;2023-05-10T14:17:55;3.30;;;2.08;;
23266;SDS011;11802;53.160;8.214;2023-05-10T14:20:21;2.30;;;1.75;;
23266;SDS011;11802;53.160;8.214;2023-05-10T14:22:46;3.22;;;1.45;;
23266;SDS011;11802;53.160;8.214;2023-05-10T14:25:12;3.08;;;1.38;;
23266;SDS011;11802;53.160;8.214;2023-05-10T14:27:38;2.17;;;1.70;;
23266;SDS011;11802;53.160;8.214;2023-05-10T14:30:04;2.50;;;1.98;;
23266;SDS011;11802;53.160;8.214;2023-05-10T14:32:29;2.35;;;1.80;;
23266;SDS011;11802;53.160;8.214;2023-05-10T14:34:56;2.20;;;1.73;;
23266;SDS011;11802;53.160;8.214;2023-05-10T14:37:22;2.78;;;1.80;;
23266;SDS011;11802;53.160;8.214;2023-05-10T14:39:47;2.38;;;1.60;;
23266;SDS011;11802;53.160;8.214;2023-05-10T14:42:13;2.10;;;1.90;;
23266;SDS011;11802;53.160;8.214;2023-05-10T14:44:38;3.92;;;1.50;;
23266;SDS011;11802;53.160;8.214;2023-05-10T14:47:04;2.28;;;1.65;;
23266;SDS011;11802;53.160;8.214;2023-05-10T14:49:30;2.03;;;1.60;;
23266;SDS011;11802;53.160;8.214;2023-05-10T14:51:55;4.13;;;2.92;;
23266;SDS011;11802;53.160;8.214;2023-05-10T14:54:21;2.85;;;1.42;;
23266;SDS011;11802;53.160;8.214;2023-05-10T14:56:47;3.63;;;1.85;;
23266;SDS011;11802;53.160;8.214;2023-05-10T14:59:14;3.08;;;1.45;;
23266;SDS011;11802;53.160;8.214;2023-05-10T15:01:40;1.60;;;1.42;;
23266;SDS011;11802;53.160;8.214;2023-05-10T15:04:06;1.80;;;1.50;;
23266;SDS011;11802;53.160;8.214;2023-05-10T15:06:33;1.92;;;1.42;;
23266;SDS011;11802;53.160;8.214;2023-05-10T15:08:59;3.53;;;1.45;;
23266;SDS011;11802;53.160;8.214;2023-05-10T15:11:25;5.38;;;1.60;;
23266;SDS011;11802;53.160;8.214;2023-05-10T15:13:51;2.97;;;1.50;;
23266;SDS011;11802;53.160;8.214;2023-05-10T15:16:17;3.17;;;1.58;;
23266;SDS011;11802;53.160;8.214;2023-05-10T15:18:42;2.45;;;1.48;;
23266;SDS011;11802;53.160;8.214;2023-05-10T15:21:08;2.42;;;1.50;;
23266;SDS011;11802;53.160;8.214;2023-05-10T15:23:34;3.78;;;1.70;;
23266;SDS011;11802;53.160;8.214;2023-05-10T15:26:00;2.65;;;1.50;;
23266;SDS011;11802;53.160;8.214;2023-05-10T15:28:26;2.47;;;1.60;;